sensor_id;sensor_type;location;lat;lon;timestamp;pressure;altitude;pressure_sealevel;temperature;humidity
40998;BME280;26740;45.944;12.480;2023-02-25T00:02:07;100109.25;;;7.93;100.00
40998;BME280;26740;45.944;12.480;2023-02-25T00:04:33;100099.56;;;7.73;100.00
40998;BME280;26740;45.944;12.480;2023-02-25T00:06:59;100086.75;;;7.67;100.00
40998;BME280;26740;45.944;12.480;2023-02-25T00:09:24;100085.59;;;7.63;100.00
40998;BME280;26740;45.944;12.480;2023-02-25T00:11:51;100077.88;;;7.65;100.00
40998;BME280;26740;45.944;12.480;2023-02-25T00:14:17;100077.63;;;7.67;100.00
40998;BME280;26740;45.944;12.480;2023-02-25T00:16:43;100079.78;;;7.82;100.00
40998;BME280;26740;45.944;12.480;2023-02-25T00:19:08;100079.38;;;7.73;100.00
40998;BME280;26740;45.944;12.480;2023-02-25T00:21:35;100072.25;;;7.77;100.00
40998;BME280;26740;45.944;12.480;2023-02-25T00:24:00;100067.41;;;7.67;100.00
40998;BME280;26740;45.944;12.480;2023-02-25T00:26:26;100062.19;;;7.71;100.00
40998;BME280;26740;45.944;12.480;2023-02-25T00:28:52;100058.53;;;7.82;100.00
40998;BME280;26740;45.944;12.480;2023-02-25T00:31:20;100051.38;;;7.86;100.00
40998;BME280;26740;45.944;12.480;2023-02-25T00:33:47;100040.75;;;7.78;100.00
40998;BME280;26740;45.944;12.480;2023-02-25T00:36:15;100027.97;;;7.72;100.00
40998;BME280;26740;45.944;12.480;2023-02-25T00:38:47;100026.19;;;7.83;100.00
40998;BME280;26740;45.944;12.480;2023-02-25T00:41:15;100030.44;;;7.90;100.00
40998;BME280;26740;45.944;12.480;2023-02-25T00:43:43;100035.88;;;7.85;100.00
40998;BME280;26740;45.944;12.480;2023-02-25T00:46:12;100034.56;;;7.88;100.00
40998;BME280;26740;45.944;12.480;2023-02-25T00:48:38;100023.09;;;7.79;100.00
40998;BME280;26740;45.944;12.480;2023-02-25T00:51:08;100018.31;;;7.74;100.00
40998;BME280;26740;45.944;12.480;2023-02-25T00:53:35;100018.78;;;7.88;100.00
40998;BME280;26740;45.944;12.480;2023-02-25T00:56:05;100009.84;;;7.81;100.00
40998;BME280;26740;45.944;12.480;2023-02-25T00:58:37;100007.66;;;7.83;100.00
40998;BME280;26740;45.944;12.480;2023-02-25T01:01:04;100005.34;;;7.75;100.00
40998;BME280;26740;45.944;12.480;2023-02-25T01:03:31;99991.41;;;7.87;100.00
40998;BME280;26740;45.944;12.480;2023-02-25T01:05:57;99991.41;;;7.87;100.00
40998;BME280;26740;45.944;12.480;2023-02-25T01:08:22;99993.34;;;7.86;100.00
40998;BME280;26740;45.944;12.480;2023-02-25T01:10:48;99979.38;;;7.76;100.00
40998;BME280;26740;45.944;12.480;2023-02-25T01:13:14;99970.09;;;7.82;100.00
40998;BME280;26740;45.944;12.480;2023-02-25T01:15:40;99976.28;;;7.72;100.00
40998;BME280;26740;45.944;12.480;2023-02-25T01:18:06;99983.13;;;7.87;100.00
40998;BME280;26740;45.944;12.480;2023-02-25T01:20:36;99974.19;;;7.79;100.00
40998;BME280;26740;45.944;12.480;2023-02-25T01:23:01;99970.34;;;7.81;100.00
40998;BME280;26740;45.944;12.480;2023-02-25T01:25:27;99971.63;;;7.95;100.00
40998;BME280;26740;45.944;12.480;2023-02-25T01:27:54;99973.81;;;7.93;100.00
40998;BME280;26740;45.944;12.480;2023-02-25T01:30:19;99965.69;;;7.86;100.00
40998;BME280;26740;45.944;12.480;2023-02-25T01:32:45;99952.38;;;7.83;100.00
40998;BME280;26740;45.944;12.480;2023-02-25T01:35:11;99945.66;;;7.96;100.00
40998;BME280;26740;45.944;12.480;2023-02-25T01:37:37;99939.47;;;8.11;100.00
40998;BME280;26740;45.944;12.480;2023-02-25T01:40:03;99946.69;;;8.12;100.00
40998;BME280;26740;45.944;12.480;2023-02-25T01:42:29;99933.50;;;8.19;100.00
40998;BME280;26740;45.944;12.480;2023-02-25T01:47:45;99917.09;;;8.12;100.00
40998;BME280;26740;45.944;12.480;2023-02-25T01:50:12;99911.38;;;8.19;100.00
40998;BME280;26740;45.944;12.480;2023-02-25T01:52:39;99902.84;;;8.26;100.00
40998;BME280;26740;45.944;12.480;2023-02-25T01:55:08;99898.53;;;8.35;100.00
40998;BME280;26740;45.944;12.480;2023-02-25T01:57:35;99891.94;;;8.14;100.00
40998;BME280;26740;45.944;12.480;2023-02-25T02:00:01;99893.53;;;8.05;100.00
40998;BME280;26740;45.944;12.480;2023-02-25T02:02:34;99895.34;;;8.21;100.00
40998;BME280;26740;45.944;12.480;2023-02-25T02:05:00;99887.44;;;8.08;100.00
40998;BME280;26740;45.944;12.480;2023-02-25T02:07:26;99886.00;;;8.00;100.00
40998;BME280;26740;45.944;12.480;2023-02-25T02:09:52;99880.97;;;7.97;100.00
40998;BME280;26740;45.944;12.480;2023-02-25T02:12:23;99882.59;;;7.93;100.00
40998;BME280;26740;45.944;12.480;2023-02-25T02:14:49;99870.22;;;8.01;100.00
40998;BME280;26740;45.944;12.480;2023-02-25T02:17:32;99877.94;;;7.98;100.00
40998;BME280;26740;45.944;12.480;2023-02-25T02:23:12;99855.00;;;7.98;100.00
40998;BME280;26740;45.944;12.480;2023-02-25T02:31:31;99843.72;;;7.77;100.00
40998;BME280;26740;45.944;12.480;2023-02-25T02:40:01;99844.47;;;7.73;100.00
40998;BME280;26740;45.944;12.480;2023-02-25T02:42:53;99830.94;;;7.71;100.00
40998;BME280;26740;45.944;12.480;2023-02-25T02:45:40;99831.78;;;7.72;100.00
40998;BME280;26740;45.944;12.480;2023-02-25T02:48:12;99838.84;;;7.63;100.00
40998;BME280;26740;45.944;12.480;2023-02-25T02:50:44;99828.25;;;7.54;100.00
40998;BME280;26740;45.944;12.480;2023-02-25T02:53:23;99829.34;;;7.53;100.00
40998;BME280;26740;45.944;12.480;2023-02-25T02:55:54;99822.22;;;7.57;100.00
40998;BME280;26740;45.944;12.480;2023-02-25T02:58:25;99824.41;;;7.55;100.00
40998;BME280;26740;45.944;12.480;2023-02-25T03:00:56;99810.38;;;7.62;100.00
40998;BME280;26740;45.944;12.480;2023-02-25T03:03:28;99820.47;;;7.73;100.00
40998;BME280;26740;45.944;12.480;2023-02-25T03:06:09;99808.78;;;7.66;100.00
40998;BME280;26740;45.944;12.480;2023-02-25T03:08:43;99800.13;;;7.57;100.00
40998;BME280;26740;45.944;12.480;2023-02-25T03:11:10;99803.97;;;7.56;100.00
40998;BME280;26740;45.944;12.480;2023-02-25T03:13:36;99801.19;;;7.56;100.00
40998;BME280;26740;45.944;12.480;2023-02-25T03:16:05;99806.53;;;7.63;100.00
40998;BME280;26740;45.944;12.480;2023-02-25T03:18:50;99803.75;;;7.63;100.00
40998;BME280;26740;45.944;12.480;2023-02-25T03:21:20;99801.84;;;7.64;100.00
40998;BME280;26740;45.944;12.480;2023-02-25T03:23:47;99803.00;;;7.68;100.00
40998;BME280;26740;45.944;12.480;2023-02-25T03:26:33;99799.25;;;7.79;100.00
40998;BME280;26740;45.944;12.480;2023-02-25T03:28:59;99793.34;;;7.97;100.00
40998;BME280;26740;45.944;12.480;2023-02-25T03:31:46;99783.50;;;8.07;100.00
40998;BME280;26740;45.944;12.480;2023-02-25T03:34:20;99781.16;;;7.93;100.00
40998;BME280;26740;45.944;12.480;2023-02-25T03:37:12;99803.69;;;8.07;100.00
40998;BME280;26740;45.944;12.480;2023-02-25T03:39:45;99806.03;;;8.21;100.00
40998;BME280;26740;45.944;12.480;2023-02-25T03:42:17;99797.22;;;8.29;100.00
40998;BME280;26740;45.944;12.480;2023-02-25T03:44:49;99803.78;;;8.18;100.00
40998;BME280;26740;45.944;12.480;2023-02-25T03:47:17;99811.75;;;8.14;100.00
40998;BME280;26740;45.944;12.480;2023-02-25T03:52:17;99806.50;;;8.12;100.00
40998;BME280;26740;45.944;12.480;2023-02-25T03:54:49;99807.31;;;8.13;100.00
40998;BME280;26740;45.944;12.480;2023-02-25T03:57:16;99798.88;;;7.97;100.00
40998;BME280;26740;45.944;12.480;2023-02-25T03:59:41;99799.09;;;7.91;100.00
40998;BME280;26740;45.944;12.480;2023-02-25T04:02:07;99797.47;;;7.95;100.00
40998;BME280;26740;45.944;12.480;2023-02-25T04:04:33;99807.25;;;8.08;100.00
40998;BME280;26740;45.944;12.480;2023-02-25T04:06:58;99808.94;;;8.09;100.00
40998;BME280;26740;45.944;12.480;2023-02-25T04:09:24;99804.50;;;8.08;100.00
40998;BME280;26740;45.944;12.480;2023-02-25T04:11:49;99813.59;;;8.03;100.00
40998;BME280;26740;45.944;12.480;2023-02-25T04:14:15;99805.34;;;8.08;100.00
40998;BME280;26740;45.944;12.480;2023-02-25T04:16:42;99809.00;;;8.14;100.00
40998;BME280;26740;45.944;12.480;2023-02-25T04:19:08;99802.66;;;8.19;100.00
40998;BME280;26740;45.944;12.480;2023-02-25T04:21:35;99802.41;;;8.20;100.00
40998;BME280;26740;45.944;12.480;2023-02-25T04:24:02;99787.72;;;8.14;100.00
40998;BME280;26740;45.944;12.480;2023-02-25T04:26:27;99790.78;;;8.18;100.00
40998;BME280;26740;45.944;12.480;2023-02-25T04:28:53;99795.75;;;8.16;100.00
40998;BME280;26740;45.944;12.480;2023-02-25T04:31:19;99786.97;;;8.24;100.00
40998;BME280;26740;45.944;12.480;2023-02-25T04:33:44;99792.72;;;8.18;100.00
40998;BME280;26740;45.944;12.480;2023-02-25T04:36:33;99777.00;;;8.23;100.00
40998;BME280;26740;45.944;12.480;2023-02-25T04:39:00;99781.13;;;8.21;100.00
40998;BME280;26740;45.944;12.480;2023-02-25T04:41:32;99776.16;;;8.23;100.00
40998;BME280;26740;45.944;12.480;2023-02-25T04:43:59;99769.78;;;8.22;100.00
40998;BME280;26740;45.944;12.480;2023-02-25T04:46:25;99773.09;;;8.19;100.00
40998;BME280;26740;45.944;12.480;2023-02-25T04:48:50;99771.41;;;8.18;100.00
40998;BME280;26740;45.944;12.480;2023-02-25T04:51:16;99773.38;;;8.18;100.00
40998;BME280;26740;45.944;12.480;2023-02-25T04:53:42;99778.31;;;8.15;100.00
40998;BME280;26740;45.944;12.480;2023-02-25T04:56:08;99776.06;;;8.12;100.00
40998;BME280;26740;45.944;12.480;2023-02-25T04:58:35;99772.78;;;8.15;100.00
40998;BME280;26740;45.944;12.480;2023-02-25T05:01:03;99774.41;;;8.11;100.00
40998;BME280;26740;45.944;12.480;2023-02-25T05:03:30;99768.50;;;8.30;100.00
40998;BME280;26740;45.944;12.480;2023-02-25T05:05:56;99751.44;;;8.43;100.00
40998;BME280;26740;45.944;12.480;2023-02-25T05:08:22;99772.56;;;8.22;100.00
40998;BME280;26740;45.944;12.480;2023-02-25T05:10:48;99775.31;;;8.17;100.00
40998;BME280;26740;45.944;12.480;2023-02-25T05:13:14;99772.84;;;8.21;100.00
40998;BME280;26740;45.944;12.480;2023-02-25T05:15:39;99760.88;;;8.15;100.00
40998;BME280;26740;45.944;12.480;2023-02-25T05:18:05;99768.09;;;8.16;100.00
40998;BME280;26740;45.944;12.480;2023-02-25T05:20:30;99757.06;;;8.21;100.00
40998;BME280;26740;45.944;12.480;2023-02-25T05:22:56;99761.06;;;8.35;100.00
40998;BME280;26740;45.944;12.480;2023-02-25T05:25:21;99748.91;;;8.37;100.00
40998;BME280;26740;45.944;12.480;2023-02-25T05:27:47;99758.72;;;8.17;100.00
40998;BME280;26740;45.944;12.480;2023-02-25T05:30:13;99761.47;;;8.17;100.00
40998;BME280;26740;45.944;12.480;2023-02-25T05:32:39;99757.50;;;8.08;100.00
40998;BME280;26740;45.944;12.480;2023-02-25T05:35:06;99750.38;;;8.12;100.00
40998;BME280;26740;45.944;12.480;2023-02-25T05:37:36;99751.16;;;8.07;100.00
40998;BME280;26740;45.944;12.480;2023-02-25T05:40:02;99744.22;;;8.05;100.00
40998;BME280;26740;45.944;12.480;2023-02-25T05:42:28;99741.66;;;7.98;100.00
40998;BME280;26740;45.944;12.480;2023-02-25T05:44:53;99754.38;;;7.99;100.00
40998;BME280;26740;45.944;12.480;2023-02-25T05:47:19;99756.63;;;8.02;100.00
40998;BME280;26740;45.944;12.480;2023-02-25T05:49:45;99753.59;;;8.04;100.00
40998;BME280;26740;45.944;12.480;2023-02-25T05:52:12;99748.22;;;7.92;100.00
40998;BME280;26740;45.944;12.480;2023-02-25T05:54:38;99757.69;;;7.96;100.00
40998;BME280;26740;45.944;12.480;2023-02-25T05:57:04;99764.88;;;7.97;100.00
40998;BME280;26740;45.944;12.480;2023-02-25T05:59:30;99757.16;;;7.99;100.00
40998;BME280;26740;45.944;12.480;2023-02-25T06:01:56;99753.00;;;7.96;100.00
40998;BME280;26740;45.944;12.480;2023-02-25T06:04:21;99746.94;;;8.00;100.00
40998;BME280;26740;45.944;12.480;2023-02-25T06:06:47;99741.47;;;8.05;100.00
40998;BME280;26740;45.944;12.480;2023-02-25T06:09:18;99752.69;;;7.93;100.00
40998;BME280;26740;45.944;12.480;2023-02-25T06:11:46;99753.72;;;7.87;100.00
40998;BME280;26740;45.944;12.480;2023-02-25T06:14:13;99748.69;;;7.78;100.00
40998;BME280;26740;45.944;12.480;2023-02-25T06:16:39;99751.19;;;7.80;100.00
40998;BME280;26740;45.944;12.480;2023-02-25T06:19:06;99751.19;;;7.85;100.00
40998;BME280;26740;45.944;12.480;2023-02-25T06:21:33;99754.03;;;7.90;100.00
40998;BME280;26740;45.944;12.480;2023-02-25T06:24:03;99749.66;;;7.94;100.00
40998;BME280;26740;45.944;12.480;2023-02-25T06:26:28;99749.75;;;8.05;100.00
40998;BME280;26740;45.944;12.480;2023-02-25T06:28:54;99739.81;;;8.09;100.00
40998;BME280;26740;45.944;12.480;2023-02-25T06:31:22;99742.38;;;8.15;100.00
40998;BME280;26740;45.944;12.480;2023-02-25T06:33:49;99738.97;;;8.03;100.00
40998;BME280;26740;45.944;12.480;2023-02-25T06:36:19;99743.06;;;8.01;100.00
40998;BME280;26740;45.944;12.480;2023-02-25T06:38:45;99734.50;;;8.02;100.00
40998;BME280;26740;45.944;12.480;2023-02-25T06:41:14;99738.84;;;7.93;100.00
40998;BME280;26740;45.944;12.480;2023-02-25T06:43:41;99739.44;;;7.95;100.00
40998;BME280;26740;45.944;12.480;2023-02-25T06:46:09;99752.94;;;7.91;100.00
40998;BME280;26740;45.944;12.480;2023-02-25T06:48:35;99760.22;;;8.03;100.00
40998;BME280;26740;45.944;12.480;2023-02-25T06:51:01;99758.31;;;8.03;100.00
40998;BME280;26740;45.944;12.480;2023-02-25T06:53:29;99757.44;;;8.03;100.00
40998;BME280;26740;45.944;12.480;2023-02-25T06:55:57;99753.28;;;8.32;100.00
40998;BME280;26740;45.944;12.480;2023-02-25T06:58:23;99754.16;;;8.38;100.00
40998;BME280;26740;45.944;12.480;2023-02-25T07:00:48;99759.84;;;8.21;100.00
40998;BME280;26740;45.944;12.480;2023-02-25T07:03:14;99758.38;;;8.13;100.00
40998;BME280;26740;45.944;12.480;2023-02-25T07:05:41;99767.94;;;8.01;100.00
40998;BME280;26740;45.944;12.480;2023-02-25T07:08:06;99760.22;;;8.03;100.00
40998;BME280;26740;45.944;12.480;2023-02-25T07:10:32;99766.81;;;7.96;100.00
40998;BME280;26740;45.944;12.480;2023-02-25T07:12:58;99762.59;;;7.89;100.00
40998;BME280;26740;45.944;12.480;2023-02-25T07:15:23;99767.38;;;7.98;100.00
40998;BME280;26740;45.944;12.480;2023-02-25T07:17:49;99762.59;;;7.89;100.00
40998;BME280;26740;45.944;12.480;2023-02-25T07:20:14;99754.03;;;7.90;100.00
40998;BME280;26740;45.944;12.480;2023-02-25T07:22:40;99762.63;;;7.94;100.00
40998;BME280;26740;45.944;12.480;2023-02-25T07:25:10;99750.19;;;7.91;100.00
40998;BME280;26740;45.944;12.480;2023-02-25T07:27:40;99759.66;;;8.01;100.00
40998;BME280;26740;45.944;12.480;2023-02-25T07:30:06;99769.84;;;7.95;100.00
40998;BME280;26740;45.944;12.480;2023-02-25T07:32:31;99761.78;;;7.93;100.00
40998;BME280;26740;45.944;12.480;2023-02-25T07:34:57;99750.47;;;7.95;100.00
40998;BME280;26740;45.944;12.480;2023-02-25T07:37:22;99758.31;;;8.03;100.00
40998;BME280;26740;45.944;12.480;2023-02-25T07:39:48;99750.44;;;8.22;100.00
40998;BME280;26740;45.944;12.480;2023-02-25T07:42:13;99744.00;;;8.44;100.00
40998;BME280;26740;45.944;12.480;2023-02-25T07:44:39;99753.63;;;8.73;100.00
40998;BME280;26740;45.944;12.480;2023-02-25T07:47:04;99737.94;;;8.89;100.00
40998;BME280;26740;45.944;12.480;2023-02-25T07:49:30;99740.06;;;9.45;100.00
40998;BME280;26740;45.944;12.480;2023-02-25T07:51:55;99742.63;;;9.57;100.00
40998;BME280;26740;45.944;12.480;2023-02-25T07:54:21;99748.38;;;9.45;100.00
40998;BME280;26740;45.944;12.480;2023-02-25T07:56:47;99739.81;;;9.52;100.00
40998;BME280;26740;45.944;12.480;2023-02-25T07:59:16;99744.84;;;9.55;100.00
40998;BME280;26740;45.944;12.480;2023-02-25T08:01:42;99744.59;;;9.62;100.00
40998;BME280;26740;45.944;12.480;2023-02-25T08:04:08;99740.13;;;9.61;100.00
40998;BME280;26740;45.944;12.480;2023-02-25T08:06:36;99740.34;;;9.44;100.00
40998;BME280;26740;45.944;12.480;2023-02-25T08:09:04;99729.88;;;9.66;100.00
40998;BME280;26740;45.944;12.480;2023-02-25T08:11:30;99730.41;;;9.48;100.00
40998;BME280;26740;45.944;12.480;2023-02-25T08:13:56;99725.94;;;9.47;100.00
40998;BME280;26740;45.944;12.480;2023-02-25T08:16:23;99719.47;;;9.16;100.00
40998;BME280;26740;45.944;12.480;2023-02-25T08:18:49;99726.66;;;9.11;100.00
40998;BME280;26740;45.944;12.480;2023-02-25T08:21:16;99724.69;;;8.97;100.00
40998;BME280;26740;45.944;12.480;2023-02-25T08:23:42;99719.38;;;8.90;100.00
40998;BME280;26740;45.944;12.480;2023-02-25T08:26:08;99722.09;;;8.80;100.00
40998;BME280;26740;45.944;12.480;2023-02-25T08:28:36;99715.69;;;8.74;100.00
40998;BME280;26740;45.944;12.480;2023-02-25T08:31:03;99725.63;;;8.70;100.00
40998;BME280;26740;45.944;12.480;2023-02-25T08:33:28;99724.75;;;8.64;100.00
40998;BME280;26740;45.944;12.480;2023-02-25T08:35:54;99722.66;;;8.82;100.00
40998;BME280;26740;45.944;12.480;2023-02-25T08:38:20;99726.94;;;9.10;100.00
40998;BME280;26740;45.944;12.480;2023-02-25T08:40:45;99696.66;;;10.38;100.00
40998;BME280;26740;45.944;12.480;2023-02-25T08:43:11;99708.03;;;10.32;100.00
40998;BME280;26740;45.944;12.480;2023-02-25T08:45:40;99708.03;;;10.11;100.00
40998;BME280;26740;45.944;12.480;2023-02-25T08:48:05;99698.31;;;10.24;100.00
40998;BME280;26740;45.944;12.480;2023-02-25T08:50:31;99696.84;;;10.73;100.00
40998;BME280;26740;45.944;12.480;2023-02-25T08:52:57;99701.28;;;10.79;100.00
40998;BME280;26740;45.944;12.480;2023-02-25T08:55:23;99707.84;;;11.09;100.00
40998;BME280;26740;45.944;12.480;2023-02-25T08:57:52;99699.91;;;10.76;100.00
40998;BME280;26740;45.944;12.480;2023-02-25T09:00:18;99703.03;;;10.49;100.00
40998;BME280;26740;45.944;12.480;2023-02-25T09:02:45;99702.22;;;10.02;100.00
40998;BME280;26740;45.944;12.480;2023-02-25T09:05:10;99710.50;;;9.82;100.00
40998;BME280;26740;45.944;12.480;2023-02-25T09:07:36;99704.13;;;9.81;100.00
40998;BME280;26740;45.944;12.480;2023-02-25T09:10:02;99711.59;;;10.63;100.00
40998;BME280;26740;45.944;12.480;2023-02-25T09:12:31;99696.47;;;11.05;100.00
40998;BME280;26740;45.944;12.480;2023-02-25T09:14:57;99711.75;;;11.03;100.00
40998;BME280;26740;45.944;12.480;2023-02-25T09:17:22;99706.88;;;11.84;100.00
40998;BME280;26740;45.944;12.480;2023-02-25T09:19:48;99701.59;;;12.51;100.00
40998;BME280;26740;45.944;12.480;2023-02-25T09:22:13;99700.81;;;12.45;100.00
40998;BME280;26740;45.944;12.480;2023-02-25T09:24:39;99702.69;;;12.55;100.00
40998;BME280;26740;45.944;12.480;2023-02-25T09:27:05;99707.25;;;12.70;100.00
40998;BME280;26740;45.944;12.480;2023-02-25T09:29:41;99704.63;;;12.25;100.00
40998;BME280;26740;45.944;12.480;2023-02-25T09:32:08;99713.13;;;11.65;100.00
40998;BME280;26740;45.944;12.480;2023-02-25T09:34:40;99719.59;;;10.85;100.00
40998;BME280;26740;45.944;12.480;2023-02-25T09:37:05;99700.81;;;10.31;100.00
40998;BME280;26740;45.944;12.480;2023-02-25T09:39:30;99713.31;;;10.02;100.00
40998;BME280;26740;45.944;12.480;2023-02-25T09:42:18;99718.53;;;9.73;100.00
40998;BME280;26740;45.944;12.480;2023-02-25T09:44:48;99711.88;;;9.84;100.00
40998;BME280;26740;45.944;12.480;2023-02-25T09:52:38;99725.75;;;9.90;100.00
40998;BME280;26740;45.944;12.480;2023-02-25T10:00:47;99724.31;;;9.56;100.00
40998;BME280;26740;45.944;12.480;2023-02-25T10:03:24;99716.88;;;9.62;100.00
40998;BME280;26740;45.944;12.480;2023-02-25T10:17:34;99718.28;;;10.11;100.00
40998;BME280;26740;45.944;12.480;2023-02-25T10:25:43;99681.22;;;12.26;100.00
40998;BME280;26740;45.944;12.480;2023-02-25T10:28:16;99680.97;;;12.23;100.00
40998;BME280;26740;45.944;12.480;2023-02-25T10:33:23;99687.78;;;10.41;100.00
40998;BME280;26740;45.944;12.480;2023-02-25T10:36:07;99682.50;;;10.30;100.00
40998;BME280;26740;45.944;12.480;2023-02-25T10:38:37;99684.72;;;10.22;100.00
40998;BME280;26740;45.944;12.480;2023-02-25T10:41:04;99684.44;;;9.98;100.00
40998;BME280;26740;45.944;12.480;2023-02-25T10:43:30;99686.94;;;10.05;100.00
40998;BME280;26740;45.944;12.480;2023-02-25T10:46:25;99678.06;;;10.18;100.00
40998;BME280;26740;45.944;12.480;2023-02-25T10:48:55;99668.91;;;10.49;100.00
40998;BME280;26740;45.944;12.480;2023-02-25T10:51:22;99665.56;;;10.52;100.00
40998;BME280;26740;45.944;12.480;2023-02-25T10:56:22;99661.88;;;11.37;100.00
40998;BME280;26740;45.944;12.480;2023-02-25T10:59:03;99650.16;;;11.80;100.00
40998;BME280;26740;45.944;12.480;2023-02-25T11:01:38;99659.59;;;11.44;100.00
40998;BME280;26740;45.944;12.480;2023-02-25T11:04:10;99659.81;;;11.08;100.00
40998;BME280;26740;45.944;12.480;2023-02-25T11:06:38;99656.66;;;11.20;100.00
40998;BME280;26740;45.944;12.480;2023-02-25T11:11:53;99650.69;;;12.21;100.00
40998;BME280;26740;45.944;12.480;2023-02-25T11:14:40;99653.34;;;12.61;100.00
40998;BME280;26740;45.944;12.480;2023-02-25T11:17:15;99636.56;;;13.33;100.00
40998;BME280;26740;45.944;12.480;2023-02-25T11:19:59;99630.94;;;13.14;100.00
40998;BME280;26740;45.944;12.480;2023-02-25T11:22:37;99626.22;;;13.53;100.00
40998;BME280;26740;45.944;12.480;2023-02-25T11:25:15;99622.63;;;13.09;100.00
40998;BME280;26740;45.944;12.480;2023-02-25T11:27:46;99613.09;;;13.72;100.00
40998;BME280;26740;45.944;12.480;2023-02-25T11:30:25;99615.13;;;13.86;100.00
40998;BME280;26740;45.944;12.480;2023-02-25T11:32:55;99609.28;;;13.49;100.00
40998;BME280;26740;45.944;12.480;2023-02-25T11:35:26;99599.59;;;13.60;100.00
40998;BME280;26740;45.944;12.480;2023-02-25T11:37:55;99595.72;;;14.08;100.00
40998;BME280;26740;45.944;12.480;2023-02-25T11:40:39;99592.47;;;13.54;100.00
40998;BME280;26740;45.944;12.480;2023-02-25T11:45:56;99587.94;;;13.91;100.00
40998;BME280;26740;45.944;12.480;2023-02-25T11:48:59;99576.78;;;13.39;100.00
40998;BME280;26740;45.944;12.480;2023-02-25T11:51:44;99573.09;;;13.25;100.00
40998;BME280;26740;45.944;12.480;2023-02-25T11:57:05;99572.50;;;13.80;100.00
40998;BME280;26740;45.944;12.480;2023-02-25T11:59:36;99576.34;;;13.13;100.00
40998;BME280;26740;45.944;12.480;2023-02-25T12:05:04;99554.53;;;12.34;100.00
40998;BME280;26740;45.944;12.480;2023-02-25T12:43:54;99539.34;;;13.45;100.00
40998;BME280;26740;45.944;12.480;2023-02-25T13:03:24;99527.16;;;12.41;100.00
40998;BME280;26740;45.944;12.480;2023-02-25T13:08:31;99515.38;;;12.25;100.00
40998;BME280;26740;45.944;12.480;2023-02-25T13:17:20;99509.28;;;12.66;100.00
40998;BME280;26740;45.944;12.480;2023-02-25T13:36:30;99483.56;;;13.26;100.00
40998;BME280;26740;45.944;12.480;2023-02-25T13:53:31;99487.16;;;13.13;100.00
40998;BME280;26740;45.944;12.480;2023-02-25T13:59:11;99484.81;;;12.82;100.00
40998;BME280;26740;45.944;12.480;2023-02-25T14:02:02;99475.53;;;12.49;100.00
40998;BME280;26740;45.944;12.480;2023-02-25T14:04:54;99464.88;;;12.75;100.00
40998;BME280;26740;45.944;12.480;2023-02-25T14:07:46;99465.47;;;13.10;100.00
40998;BME280;26740;45.944;12.480;2023-02-25T14:10:53;99468.16;;;13.34;100.00
40998;BME280;26740;45.944;12.480;2023-02-25T14:16:03;99463.44;;;12.97;100.00
40998;BME280;26740;45.944;12.480;2023-02-25T14:24:08;99473.41;;;12.22;100.00
40998;BME280;26740;45.944;12.480;2023-02-25T14:26:58;99479.84;;;12.41;100.00
40998;BME280;26740;45.944;12.480;2023-02-25T14:32:48;99467.88;;;12.98;100.00
40998;BME280;26740;45.944;12.480;2023-02-25T14:38:25;99458.16;;;12.38;100.00
40998;BME280;26740;45.944;12.480;2023-02-25T14:41:14;99459.59;;;12.74;100.00
40998;BME280;26740;45.944;12.480;2023-02-25T14:43:44;99463.13;;;12.41;100.00
40998;BME280;26740;45.944;12.480;2023-02-25T15:00:41;99487.13;;;12.13;100.00
40998;BME280;26740;45.944;12.480;2023-02-25T15:14:40;99440.38;;;11.86;100.00
40998;BME280;26740;45.944;12.480;2023-02-25T15:19:51;99439.44;;;11.71;100.00
40998;BME280;26740;45.944;12.480;2023-02-25T15:22:17;99438.91;;;11.69;100.00
40998;BME280;26740;45.944;12.480;2023-02-25T15:24:43;99439.72;;;11.70;100.00
40998;BME280;26740;45.944;12.480;2023-02-25T15:30:21;99434.41;;;11.73;100.00
40998;BME280;26740;45.944;12.480;2023-02-25T15:35:22;99452.00;;;11.69;100.00
40998;BME280;26740;45.944;12.480;2023-02-25T15:42:56;99447.34;;;11.59;100.00
40998;BME280;26740;45.944;12.480;2023-02-25T15:55:41;99450.78;;;11.51;100.00
40998;BME280;26740;45.944;12.480;2023-02-25T16:00:52;99454.41;;;11.51;100.00
40998;BME280;26740;45.944;12.480;2023-02-25T16:06:25;99456.16;;;11.42;100.00
40998;BME280;26740;45.944;12.480;2023-02-25T16:11:37;99467.06;;;11.33;100.00
40998;BME280;26740;45.944;12.480;2023-02-25T16:14:16;99470.97;;;11.32;100.00
40998;BME280;26740;45.944;12.480;2023-02-25T16:16:49;99465.13;;;11.34;100.00
40998;BME280;26740;45.944;12.480;2023-02-25T16:19:18;99475.00;;;11.45;100.00
40998;BME280;26740;45.944;12.480;2023-02-25T16:21:59;99473.00;;;11.56;100.00
40998;BME280;26740;45.944;12.480;2023-02-25T16:24:27;99475.00;;;11.45;100.00
40998;BME280;26740;45.944;12.480;2023-02-25T16:29:49;99477.88;;;11.40;100.00
40998;BME280;26740;45.944;12.480;2023-02-25T16:35:12;99479.31;;;11.32;100.00
40998;BME280;26740;45.944;12.480;2023-02-25T16:37:57;99480.53;;;11.21;100.00
40998;BME280;26740;45.944;12.480;2023-02-25T16:40:30;99482.81;;;11.14;100.00
40998;BME280;26740;45.944;12.480;2023-02-25T16:42:59;99488.00;;;11.20;100.00
40998;BME280;26740;45.944;12.480;2023-02-25T16:45:32;99486.06;;;11.21;100.00
40998;BME280;26740;45.944;12.480;2023-02-25T16:48:03;99480.59;;;11.11;100.00
40998;BME280;26740;45.944;12.480;2023-02-25T16:50:31;99475.84;;;11.11;100.00
40998;BME280;26740;45.944;12.480;2023-02-25T16:52:59;99474.75;;;11.12;100.00
40998;BME280;26740;45.944;12.480;2023-02-25T16:55:37;99487.00;;;11.06;100.00
40998;BME280;26740;45.944;12.480;2023-02-25T16:58:22;99484.19;;;11.11;100.00